Time;durP1;ratioP1;P1;durP2;ratioP2;P2;SDS_P1;SDS_P2;PMS_P1;PMS_P2;Temp;Humidity;BMP_temperature;BMP_pressure;BME280_temperature;BME280_humidity;BME280_pressure;Samples;Min_cycle;Max_cycle;Signal;HPM_P1;HPM_P2
2022/05/15 00:00:45;;;;;;;3.00;1.85;;;18.30;98.80;;;;;;5056018;28;20056;-56
2022/05/15 00:03:18;;;;;;;4.43;2.25;;;18.30;98.90;;;;;;5056314;28;20029;-57
2022/05/15 00:05:45;;;;;;;8.73;2.22;;;18.30;99.00;;;;;;5055013;28;20025;-57
2022/05/15 00:08:11;;;;;;;6.70;2.25;;;18.10;99.10;;;;;;5055996;28;20366;-57
2022/05/15 00:10:40;;;;;;;3.85;1.95;;;18.00;99.20;;;;;;5055836;28;20064;-56
2022/05/15 00:13:06;;;;;;;5.40;2.50;;;18.10;99.10;;;;;;5055880;28;20029;-56
2022/05/15 00:15:33;;;;;;;6.25;2.20;;;18.10;99.10;;;;;;5055740;28;20025;-56
2022/05/15 00:17:59;;;;;;;7.40;2.33;;;18.00;99.20;;;;;;5056013;28;20039;-57
2022/05/15 00:20:25;;;;;;;5.85;2.10;;;18.10;99.30;;;;;;5055600;28;20116;-56
2022/05/15 00:22:51;;;;;;;4.35;2.47;;;18.10;99.30;;;;;;5055647;28;20021;-56
2022/05/15 00:25:17;;;;;;;4.47;2.15;;;18.00;99.30;;;;;;5055592;28;20456;-56
2022/05/15 00:27:42;;;;;;;5.25;1.98;;;18.00;99.40;;;;;;5054299;28;20064;-56
2022/05/15 00:30:09;;;;;;;5.00;1.90;;;18.00;99.50;;;;;;5055485;28;20056;-57
2022/05/15 00:32:35;;;;;;;5.00;2.65;;;17.90;99.40;;;;;;5055430;28;20036;-57
2022/05/15 00:35:00;;;;;;;3.20;1.80;;;18.00;99.30;;;;;;5053257;28;20029;-56
2022/05/15 00:37:26;;;;;;;6.20;2.10;;;17.90;99.50;;;;;;5053317;28;20112;-56
2022/05/15 00:39:52;;;;;;;4.05;2.47;;;17.90;99.40;;;;;;5052970;28;20049;-56
2022/05/15 00:42:18;;;;;;;5.25;2.22;;;17.80;99.40;;;;;;5053360;28;20109;-57
2022/05/15 00:44:44;;;;;;;7.05;2.72;;;17.80;99.50;;;;;;5052911;28;20421;-56
2022/05/15 00:47:09;;;;;;;4.03;2.30;;;17.80;99.60;;;;;;5053229;28;20114;-56
2022/05/15 00:49:36;;;;;;;4.53;2.33;;;17.80;99.90;;;;;;5053043;28;20116;-56
2022/05/15 00:52:08;;;;;;;4.25;2.40;;;17.70;99.90;;;;;;5052948;28;20049;-56
2022/05/15 00:55:04;;;;;;;5.85;2.20;;;17.70;99.90;;;;;;5052824;28;20064;-56
2022/05/15 00:57:34;;;;;;;6.85;2.13;;;17.70;99.90;;;;;;5052930;28;20156;-56
2022/05/15 01:00:07;;;;;;;5.47;2.72;;;17.70;99.90;;;;;;5052721;28;20131;-56
2022/05/15 01:02:39;;;;;;;4.72;2.10;;;17.70;99.90;;;;;;5052821;28;20129;-57
2022/05/15 01:05:07;;;;;;;6.80;2.63;;;17.60;99.90;;;;;;5050294;28;20028;-56
2022/05/15 01:07:32;;;;;;;5.97;2.20;;;17.60;99.90;;;;;;5034819;28;20113;-56
2022/05/15 01:10:00;;;;;;;6.13;2.33;;;17.60;99.90;;;;;;5034914;28;20108;-56
2022/05/15 01:12:27;;;;;;;5.78;1.92;;;17.60;99.90;;;;;;5034744;28;20030;-56
2022/05/15 01:14:54;;;;;;;3.95;2.10;;;17.50;99.90;;;;;;5034800;28;20033;-56
2022/05/15 01:17:19;;;;;;;6.68;2.40;;;17.60;99.90;;;;;;5034722;28;20029;-57
2022/05/15 01:19:45;;;;;;;4.97;2.13;;;17.60;99.90;;;;;;5034507;28;20039;-56
2022/05/15 01:22:15;;;;;;;7.60;2.00;;;17.50;99.90;;;;;;5034708;28;20037;-56
2022/05/15 01:24:42;;;;;;;7.25;2.03;;;17.50;99.90;;;;;;5034508;28;20061;-56
2022/05/15 01:27:13;;;;;;;5.45;2.00;;;17.50;99.90;;;;;;5034444;28;20044;-56
2022/05/15 01:29:44;;;;;;;7.10;2.53;;;17.50;99.90;;;;;;5034376;28;20029;-57
2022/05/15 01:32:11;;;;;;;5.40;2.35;;;17.40;99.90;;;;;;5034512;28;20021;-56
2022/05/15 01:34:38;;;;;;;4.75;2.30;;;;;;;;;;5033030;28;20477;-56
2022/05/15 01:37:05;;;;;;;5.53;2.30;;;17.20;99.90;;;;;;5034409;28;20037;-57
2022/05/15 01:39:31;;;;;;;5.50;2.55;;;17.20;99.90;;;;;;5034404;28;20044;-57
2022/05/15 01:41:58;;;;;;;5.95;2.20;;;17.20;99.90;;;;;;5034259;28;20048;-56
2022/05/15 01:44:24;;;;;;;8.88;2.47;;;17.20;99.90;;;;;;5034228;28;20036;-56
2022/05/15 01:46:50;;;;;;;6.20;2.20;;;17.10;99.90;;;;;;5034316;28;20021;-56
2022/05/15 01:49:16;;;;;;;5.65;2.53;;;17.10;99.90;;;;;;5034187;28;20030;-56
2022/05/15 01:51:42;;;;;;;5.45;2.50;;;17.00;99.90;;;;;;5040359;28;20496;-56
2022/05/15 01:54:09;;;;;;;7.78;2.72;;;17.00;99.90;;;;;;5054017;28;20526;-57
2022/05/15 01:56:36;;;;;;;6.55;2.40;;;17.10;99.90;;;;;;5053837;28;20477;-57
2022/05/15 01:59:06;;;;;;;4.97;2.40;;;17.10;99.90;;;;;;5053982;28;20107;-56
2022/05/15 02:01:33;;;;;;;4.43;2.58;;;17.00;99.90;;;;;;5053830;28;20475;-57
2022/05/15 02:03:59;;;;;;;5.25;2.65;;;16.80;99.90;;;;;;5053628;28;20029;-56
2022/05/15 02:06:25;;;;;;;6.85;2.67;;;16.80;99.90;;;;;;5053816;28;20388;-57
2022/05/15 02:08:51;;;;;;;4.53;2.78;;;16.80;99.90;;;;;;5053629;28;20025;-57
2022/05/15 02:11:17;;;;;;;5.47;2.58;;;16.80;99.90;;;;;;5053733;28;20040;-57
2022/05/15 02:13:43;;;;;;;4.50;2.72;;;16.80;99.90;;;;;;5053481;28;20500;-56
2022/05/15 02:16:09;;;;;;;5.50;2.72;;;16.80;99.90;;;;;;5053703;28;20108;-57
2022/05/15 02:18:35;;;;;;;6.15;2.72;;;16.80;99.90;;;;;;5053529;28;20074;-56
2022/05/15 02:21:01;;;;;;;3.50;2.30;;;16.80;99.90;;;;;;5053522;28;20057;-56
2022/05/15 02:23:27;;;;;;;3.10;2.20;;;16.80;99.90;;;;;;5034978;28;20123;-56
2022/05/15 02:25:53;;;;;;;3.30;1.92;;;16.80;99.90;;;;;;5053488;28;20465;-56
2022/05/15 02:28:19;;;;;;;4.20;2.33;;;16.80;99.90;;;;;;5053077;28;20101;-57
2022/05/15 02:30:48;;;;;;;3.22;2.08;;;16.90;99.90;;;;;;5053339;28;20423;-57
2022/05/15 02:33:14;;;;;;;5.95;2.20;;;16.90;99.90;;;;;;5053353;28;20435;-57
2022/05/15 02:35:40;;;;;;;3.50;2.25;;;16.90;99.90;;;;;;5053162;28;20025;-56
2022/05/15 02:38:05;;;;;;;6.13;2.22;;;16.90;99.90;;;;;;5053242;28;20078;-56
2022/05/15 02:40:32;;;;;;;3.15;2.08;;;16.80;99.90;;;;;;5053194;28;20120;-56
2022/05/15 02:42:57;;;;;;;4.80;2.58;;;16.80;99.90;;;;;;5053014;28;20021;-57
2022/05/15 02:45:24;;;;;;;4.22;2.40;;;16.80;99.90;;;;;;5051733;28;20394;-56
2022/05/15 02:47:50;;;;;;;5.80;2.75;;;16.70;99.90;;;;;;5031000;28;20041;-56
2022/05/15 02:53:01;;;;;;;3.17;2.10;;;16.80;99.90;;;;;;5030900;28;20064;-56
2022/05/15 02:55:28;;;;;;;3.53;2.35;;;16.80;99.90;;;;;;5031078;28;20033;-56
2022/05/15 02:57:54;;;;;;;3.63;2.10;;;16.90;99.90;;;;;;5031176;28;20160;-57
2022/05/15 03:00:23;;;;;;;6.85;2.33;;;16.90;99.90;;;;;;5030972;28;20030;-57
2022/05/15 03:02:49;;;;;;;4.63;2.38;;;16.80;99.90;;;;;;5030899;28;20111;-57
2022/05/15 03:05:16;;;;;;;4.05;2.17;;;16.90;99.90;;;;;;4998193;28;20508;-56
2022/05/15 03:07:42;;;;;;;5.40;2.15;;;16.80;99.90;;;;;;5030896;28;20038;-56
2022/05/15 03:10:11;;;;;;;5.20;2.63;;;16.80;99.90;;;;;;5030878;28;20476;-56
2022/05/15 03:12:37;;;;;;;7.93;2.65;;;16.80;99.90;;;;;;5030831;28;20041;-57
2022/05/15 03:15:05;;;;;;;5.60;2.10;;;16.60;99.90;;;;;;5030733;28;20033;-56
2022/05/15 03:17:32;;;;;;;6.97;2.72;;;16.50;99.90;;;;;;5014112;28;20056;-57
2022/05/15 03:19:57;;;;;;;3.50;2.47;;;16.40;99.90;;;;;;5033280;28;20135;-56
2022/05/15 03:22:23;;;;;;;5.97;2.97;;;16.40;99.90;;;;;;5051021;28;20120;-57
2022/05/15 03:24:49;;;;;;;3.95;2.30;;;16.30;99.90;;;;;;5052841;28;20053;-56
2022/05/15 03:27:16;;;;;;;5.25;2.63;;;16.10;99.90;;;;;;5052744;28;20087;-56
2022/05/15 03:29:42;;;;;;;4.97;2.83;;;16.10;99.90;;;;;;5052620;28;20033;-56
2022/05/15 03:32:08;;;;;;;6.82;3.38;;;16.00;99.90;;;;;;5052665;28;20100;-57
2022/05/15 03:34:34;;;;;;;6.18;2.95;;;15.80;99.90;;;;;;5052805;28;20025;-56
2022/05/15 03:37:00;;;;;;;5.72;3.10;;;15.70;99.90;;;;;;5052641;28;20025;-56
2022/05/15 03:39:26;;;;;;;5.63;3.55;;;15.60;99.90;;;;;;5052674;28;20056;-56
2022/05/15 03:41:52;;;;;;;4.47;2.92;;;15.40;99.90;;;;;;5056400;28;20025;-56
2022/05/15 03:44:18;;;;;;;6.00;3.70;;;15.40;99.90;;;;;;5056293;28;20033;-57
2022/05/15 03:46:45;;;;;;;7.32;3.40;;;15.40;99.90;;;;;;5056368;28;20025;-57
2022/05/15 03:49:13;;;;;;;5.88;3.95;;;15.30;99.90;;;;;;5056271;28;20021;-56
2022/05/15 03:51:39;;;;;;;9.30;3.55;;;15.10;99.90;;;;;;5056301;28;20045;-57
2022/05/15 03:54:06;;;;;;;9.05;3.40;;;15.10;99.90;;;;;;5056536;28;20041;-56
2022/05/15 03:56:50;;;;;;;7.20;3.88;;;15.10;99.90;;;;;;5056153;28;20091;-56
2022/05/15 03:59:18;;;;;;;8.20;4.20;;;15.10;99.90;;;;;;5056135;28;20067;-56
2022/05/15 04:01:44;;;;;;;7.63;3.95;;;15.20;99.90;;;;;;5056177;28;20106;-56
2022/05/15 04:04:10;;;;;;;14.05;4.53;;;15.00;99.90;;;;;;5056159;28;20072;-56
2022/05/15 04:06:36;;;;;;;8.73;4.75;;;15.10;99.90;;;;;;5056042;28;20086;-56
2022/05/15 04:09:02;;;;;;;8.85;4.43;;;15.00;99.90;;;;;;5056157;28;20031;-56
2022/05/15 04:11:29;;;;;;;6.30;4.50;;;15.10;99.90;;;;;;5055939;28;20031;-56
2022/05/15 04:13:54;;;;;;;4.82;4.07;;;15.30;99.90;;;;;;5055859;28;20556;-57
2022/05/15 04:16:20;;;;;;;8.35;4.25;;;15.40;99.90;;;;;;5055900;28;20067;-57
2022/05/15 04:18:46;;;;;;;7.75;4.50;;;15.50;99.90;;;;;;5055755;28;20435;-56
2022/05/15 04:21:12;;;;;;;9.93;4.53;;;15.60;99.90;;;;;;5055688;28;20108;-56
2022/05/15 04:23:38;;;;;;;13.80;5.78;;;15.70;99.90;;;;;;5055743;28;20021;-56
2022/05/15 04:26:04;;;;;;;5.65;3.97;;;15.70;99.90;;;;;;5055596;28;20028;-56
2022/05/15 04:28:29;;;;;;;7.43;4.28;;;15.60;99.90;;;;;;5055633;28;20382;-57
2022/05/15 04:30:55;;;;;;;5.72;4.00;;;15.60;99.90;;;;;;5055680;28;20060;-56
2022/05/15 04:33:21;;;;;;;9.60;4.30;;;15.60;99.90;;;;;;5055327;28;20532;-56
2022/05/15 04:35:47;;;;;;;6.45;4.10;;;15.40;99.90;;;;;;5055530;28;20385;-56
2022/05/15 04:38:12;;;;;;;9.13;4.45;;;15.30;99.90;;;;;;5053582;28;20178;-56
2022/05/15 04:40:38;;;;;;;6.68;4.05;;;15.30;99.90;;;;;;5055271;28;20032;-56
2022/05/15 04:43:04;;;;;;;7.53;4.20;;;15.20;99.90;;;;;;5055215;28;20032;-57
2022/05/15 04:45:30;;;;;;;10.13;4.63;;;15.30;99.90;;;;;;5055350;28;20036;-56
2022/05/15 04:47:56;;;;;;;8.85;4.25;;;15.30;99.90;;;;;;5055326;28;20155;-57
2022/05/15 04:50:22;;;;;;;8.15;4.22;;;15.50;99.90;;;;;;5055165;28;20086;-56
2022/05/15 04:52:48;;;;;;;7.13;4.25;;;15.50;99.90;;;;;;5054609;28;20045;-56
2022/05/15 04:55:15;;;;;;;6.82;4.75;;;15.50;99.90;;;;;;5055224;28;20032;-56
2022/05/15 04:57:42;;;;;;;6.85;4.47;;;15.70;99.90;;;;;;5055038;28;20029;-56
2022/05/15 05:00:17;;;;;;;7.78;4.70;;;15.90;99.90;;;;;;5054530;28;20037;-56
2022/05/15 05:02:44;;;;;;;6.30;4.35;;;16.10;99.90;;;;;;5036785;28;20037;-56
2022/05/15 05:05:11;;;;;;;6.22;4.60;;;16.30;99.90;;;;;;5054863;28;20052;-57
2022/05/15 05:07:37;;;;;;;5.75;3.60;;;16.40;99.90;;;;;;5055120;28;20443;-56
2022/05/15 05:10:04;;;;;;;5.85;4.22;;;16.60;99.90;;;;;;5054915;28;20078;-57
2022/05/15 05:12:30;;;;;;;8.13;4.60;;;16.80;99.90;;;;;;5054833;28;20075;-56
2022/05/15 05:14:57;;;;;;;7.35;4.53;;;17.00;99.90;;;;;;5054842;28;20041;-55
2022/05/15 05:17:24;;;;;;;7.60;4.35;;;17.20;99.90;;;;;;5054978;28;20396;-55
2022/05/15 05:19:50;;;;;;;6.57;3.88;;;17.10;99.90;;;;;;5054729;28;20094;-56
2022/05/15 05:22:16;;;;;;;8.40;4.25;;;17.00;99.90;;;;;;5054714;28;20477;-56
2022/05/15 05:24:42;;;;;;;7.10;3.83;;;17.10;99.90;;;;;;5052919;28;20040;-57
2022/05/15 05:27:07;;;;;;;5.88;3.75;;;17.20;99.90;;;;;;5054555;28;20122;-56
2022/05/15 05:29:34;;;;;;;8.27;4.10;;;17.30;99.90;;;;;;5054643;28;20025;-57
2022/05/15 05:32:00;;;;;;;8.70;4.38;;;17.40;99.90;;;;;;5054412;28;20036;-56
2022/05/15 05:34:26;;;;;;;6.60;3.67;;;17.60;99.90;;;;;;5054728;28;20037;-57
2022/05/15 05:36:52;;;;;;;11.23;5.43;;;17.70;99.90;;;;;;5054345;28;20500;-57
2022/05/15 05:39:18;;;;;;;7.30;3.88;;;17.70;99.90;;;;;;5052242;28;20091;-57
2022/05/15 05:41:44;;;;;;;8.30;4.10;;;17.80;99.90;;;;;;5054288;28;20025;-56
2022/05/15 05:44:10;;;;;;;8.68;3.78;;;17.90;99.90;;;;;;5052342;28;20443;-56
2022/05/15 05:46:37;;;;;;;12.23;4.05;;;18.10;99.90;;;;;;5054477;28;20033;-57
2022/05/15 05:49:03;;;;;;;9.77;3.60;;;18.30;99.90;;;;;;5019095;28;20041;-56
2022/05/15 05:51:29;;;;;;;11.23;3.95;;;18.40;99.90;;;;;;5053900;28;20051;-55
2022/05/15 05:53:54;;;;;;;9.32;3.88;;;18.50;99.90;;;;;;5035594;28;20033;-56
2022/05/15 05:56:20;;;;;;;10.13;3.78;;;18.50;99.90;;;;;;5053968;28;20025;-57
2022/05/15 05:58:46;;;;;;;8.25;4.45;;;18.60;99.90;;;;;;5053865;28;20025;-56
2022/05/15 06:01:13;;;;;;;7.72;3.47;;;18.60;99.90;;;;;;5053871;28;20029;-56
2022/05/15 06:06:24;;;;;;;6.85;3.20;;;18.90;99.90;;;;;;5053726;28;20500;-56
2022/05/15 06:08:50;;;;;;;12.82;4.18;;;19.10;99.90;;;;;;5053692;28;20029;-56
2022/05/15 06:11:16;;;;;;;6.00;3.50;;;19.20;99.90;;;;;;5051928;28;20037;-56
2022/05/15 06:13:41;;;;;;;5.80;3.28;;;19.40;99.90;;;;;;5053700;28;20025;-56
2022/05/15 06:16:08;;;;;;;8.07;3.03;;;;;;;;;;5053580;28;20025;-57
2022/05/15 06:18:34;;;;;;;6.40;3.83;;;19.70;99.90;;;;;;5053345;28;20124;-56
2022/05/15 06:21:00;;;;;;;8.32;3.13;;;19.60;99.90;;;;;;5053605;28;20094;-55
2022/05/15 06:23:26;;;;;;;8.15;3.20;;;19.70;99.90;;;;;;5053466;28;20032;-57
2022/05/15 06:25:51;;;;;;;6.30;3.50;;;19.80;99.90;;;;;;5053454;28;20491;-56
2022/05/15 06:28:17;;;;;;;7.65;3.67;;;19.80;99.90;;;;;;5053276;28;20047;-56
2022/05/15 06:30:44;;;;;;;8.50;3.92;;;20.00;99.90;;;;;;5053169;28;20041;-56
2022/05/15 06:33:10;;;;;;;6.68;3.22;;;20.10;99.90;;;;;;5053499;28;20025;-56
2022/05/15 06:35:36;;;;;;;9.80;4.55;;;20.10;99.90;;;;;;5051511;28;20048;-56
2022/05/15 06:38:03;;;;;;;9.80;3.33;;;20.30;99.90;;;;;;5053461;28;20124;-56
2022/05/15 06:40:29;;;;;;;4.80;2.90;;;20.40;99.90;;;;;;5053428;28;20029;-56
2022/05/15 06:42:57;;;;;;;6.78;3.60;;;20.40;99.90;;;;;;5052758;28;20090;-56
2022/05/15 06:45:24;;;;;;;6.50;3.40;;;20.50;99.90;;;;;;5052548;28;20033;-56
2022/05/15 06:47:50;;;;;;;7.38;3.28;;;20.50;99.90;;;;;;5053230;28;20083;-56
2022/05/15 06:50:16;;;;;;;14.63;3.30;;;20.70;99.90;;;;;;5052581;28;20037;-56
2022/05/15 06:52:42;;;;;;;15.98;3.75;;;20.80;99.90;;;;;;5053248;28;20443;-57
2022/05/15 06:55:10;;;;;;;7.63;3.00;;;;;;;;;;5053264;28;20025;-56
2022/05/15 06:57:36;;;;;;;8.55;3.63;;;21.20;99.90;;;;;;5055555;28;20048;-56
2022/05/15 07:00:10;;;;;;;7.03;2.85;;;21.20;99.90;;;;;;5052770;28;20037;-56
2022/05/15 07:02:36;;;;;;;4.68;2.65;;;21.30;99.90;;;;;;5052970;28;20029;-56
2022/05/15 07:05:04;;;;;;;10.15;3.05;;;21.50;99.90;;;;;;5053141;28;20017;-56
2022/05/15 07:07:30;;;;;;;5.32;2.92;;;21.60;99.90;;;;;;5053082;28;20021;-56
2022/05/15 07:09:56;;;;;;;8.43;2.60;;;21.70;99.90;;;;;;5052822;28;20119;-56
2022/05/15 07:12:24;;;;;;;8.73;3.92;;;21.60;99.90;;;;;;5053216;28;20106;-57
2022/05/15 07:14:50;;;;;;;9.05;3.15;;;21.80;99.90;;;;;;5054677;28;20112;-56
2022/05/15 07:17:16;;;;;;;7.03;2.38;;;21.90;99.90;;;;;;5056406;28;20107;-57
2022/05/15 07:19:42;;;;;;;7.57;2.47;;;22.00;99.90;;;;;;5056456;28;20120;-56
2022/05/15 07:22:09;;;;;;;7.93;2.85;;;22.00;99.90;;;;;;5056621;28;20028;-56
2022/05/15 07:24:38;;;;;;;4.38;2.30;;;22.20;99.90;;;;;;5056948;28;20028;-56
2022/05/15 07:27:05;;;;;;;10.25;2.70;;;22.30;99.90;;;;;;5056917;28;20065;-56
2022/05/15 07:29:33;;;;;;;5.60;2.63;;;22.50;99.90;;;;;;5056653;28;20028;-57
2022/05/15 07:31:59;;;;;;;5.45;2.60;;;22.60;99.90;;;;;;5056161;28;21446;-58
2022/05/15 07:34:25;;;;;;;5.60;2.35;;;22.50;99.90;;;;;;5052572;28;20037;-56
2022/05/15 07:36:52;;;;;;;6.38;2.42;;;22.70;99.90;;;;;;5056067;28;20025;-56
2022/05/15 07:39:20;;;;;;;6.05;2.65;;;23.00;99.90;;;;;;5055645;28;20032;-57
2022/05/15 07:41:47;;;;;;;5.10;2.63;;;23.10;99.90;;;;;;5055930;28;20025;-56
2022/05/15 07:44:13;;;;;;;6.72;2.72;;;23.20;99.90;;;;;;5055924;28;20044;-56
2022/05/15 07:46:40;;;;;;;7.15;2.50;;;23.30;99.90;;;;;;5056086;28;20025;-57
2022/05/15 07:49:06;;;;;;;7.70;2.53;;;23.40;99.90;;;;;;5056151;28;20036;-57
2022/05/15 07:51:32;;;;;;;5.90;2.30;;;23.40;99.90;;;;;;5055397;28;20063;-57
2022/05/15 07:53:59;;;;;;;7.65;2.85;;;23.40;99.90;;;;;;5056348;28;20453;-56
2022/05/15 07:56:25;;;;;;;8.00;2.50;;;23.30;99.90;;;;;;5055832;28;20545;-57
2022/05/15 07:58:51;;;;;;;4.70;2.28;;;23.40;99.80;;;;;;5054731;28;20052;-56
2022/05/15 08:01:17;;;;;;;5.38;2.67;;;23.70;99.90;;;;;;5056009;28;20481;-57
2022/05/15 08:03:44;;;;;;;9.55;4.25;;;23.60;99.90;;;;;;5021144;28;20052;-56
2022/05/15 08:09:01;;;;;;;4.65;2.33;;;23.80;98.50;;;;;;5056282;28;20095;-57
2022/05/15 08:11:28;;;;;;;6.90;2.28;;;23.80;98.10;;;;;;5056077;28;20025;-56
2022/05/15 08:14:00;;;;;;;5.47;2.05;;;24.10;99.90;;;;;;5056317;28;20108;-56
2022/05/15 08:16:26;;;;;;;;;;;24.30;99.90;;;;;;5056303;28;20115;-56
2022/05/15 08:24:22;;;;;;;8.00;3.03;;;;;;;;;;5056297;28;20036;-55
2022/05/15 08:26:49;;;;;;;4.78;2.22;;;24.50;96.70;;;;;;5054943;28;20040;-56
2022/05/15 08:29:15;;;;;;;3.88;2.10;;;24.50;95.60;;;;;;5055870;28;20021;-57
2022/05/15 08:31:41;;;;;;;5.47;2.40;;;24.70;97.10;;;;;;5055612;28;20029;-57
2022/05/15 08:34:08;;;;;;;5.28;1.85;;;24.70;95.70;;;;;;5055761;28;20100;-57
2022/05/15 08:36:35;;;;;;;4.43;2.00;;;;;;;;;;5055784;28;20111;-56
2022/05/15 08:39:01;;;;;;;7.13;2.63;;;25.00;94.00;;;;;;5054469;28;20033;-56
2022/05/15 08:41:38;;;;;;;5.45;1.80;;;25.00;92.50;;;;;;5052622;28;20037;-58
2022/05/15 08:44:29;;;;;;;6.15;1.95;;;25.00;92.50;;;;;;5054042;28;20052;-56
2022/05/15 08:47:10;;;;;;;10.07;4.82;;;;;;;;;;5053899;28;20538;-56
2022/05/15 08:49:46;;;;;;;5.05;1.90;;;;;;;;;;5053948;28;20114;-56
2022/05/15 08:52:13;;;;;;;5.18;1.80;;;;;;;;;;5053750;28;20498;-57
2022/05/15 08:54:48;;;;;;;4.82;1.80;;;;;;;;;;5054094;28;20040;-58
2022/05/15 08:57:19;;;;;;;2.70;1.67;;;25.40;92.90;;;;;;5054209;28;20036;-57
2022/05/15 08:59:54;;;;;;;4.90;1.75;;;25.50;91.90;;;;;;5053650;28;20049;-57
2022/05/15 09:02:21;;;;;;;5.97;1.90;;;25.80;92.80;;;;;;5053963;28;20380;-58
2022/05/15 09:04:48;;;;;;;3.25;1.52;;;;;;;;;;5053900;28;20494;-56
2022/05/15 09:07:20;;;;;;;6.72;1.98;;;;;;;;;;5053469;28;20108;-59
2022/05/15 09:10:07;;;;;;;5.38;1.92;;;;;;;;;;5053831;28;20033;-57
2022/05/15 09:12:35;;;;;;;4.35;1.60;;;26.30;90.70;;;;;;5046758;28;20045;-58
2022/05/15 09:15:04;;;;;;;3.75;1.67;;;26.60;91.20;;;;;;5053470;28;20471;-57
2022/05/15 09:17:31;;;;;;;2.42;1.58;;;;;;;;;;5053415;28;20033;-57
2022/05/15 09:20:00;;;;;;;6.22;1.70;;;26.90;91.70;;;;;;5053546;28;20469;-57
2022/05/15 09:22:35;;;;;;;3.53;1.70;;;27.00;90.00;;;;;;5052266;28;20480;-58
2022/05/15 09:25:08;;;;;;;4.20;1.75;;;27.00;89.10;;;;;;5053598;28;20094;-57
2022/05/15 09:27:34;;;;;;;5.13;1.77;;;27.20;88.50;;;;;;5053313;28;20055;-57
2022/05/15 09:30:07;;;;;;;3.55;1.65;;;;;;;;;;5052180;28;20040;-58
2022/05/15 09:32:44;;;;;;;4.15;1.77;;;27.70;99.90;;;;;;5051653;28;20098;-57
2022/05/15 09:35:27;;;;;;;4.75;1.98;;;27.30;87.30;;;;;;5053400;28;20033;-57
2022/05/15 09:43:30;;;;;;;34.25;7.95;;;;;;;;;;5052827;28;20048;-56
2022/05/15 09:43:33;;;;;;;11.68;2.55;;;;;;;;;;5053173;28;20124;-57
2022/05/15 09:46:06;;;;;;;3.85;1.65;;;;;;;;;;5053156;28;20037;-58
2022/05/15 09:48:42;;;;;;;4.30;1.70;;;;;;;;;;5053330;28;20033;-56
2022/05/15 09:51:10;;;;;;;3.75;1.38;;;;;;;;;;5052955;28;20068;-57
2022/05/15 09:53:50;;;;;;;4.10;1.80;;;;;;;;;;5053048;28;20036;-57
2022/05/15 09:56:19;;;;;;;5.75;1.80;;;;;;;;;;5052925;28;20032;-57
2022/05/15 09:58:52;;;;;;;5.25;1.98;;;;;;;;;;5052865;28;20437;-56
2022/05/15 10:01:26;;;;;;;4.30;1.60;;;28.70;82.10;;;;;;5052964;28;20071;-57
2022/05/15 10:03:54;;;;;;;3.38;1.60;;;28.80;80.80;;;;;;5052843;28;20389;-58
2022/05/15 10:06:24;;;;;;;5.65;1.70;;;29.10;81.90;;;;;;5052842;28;20108;-58
2022/05/15 10:09:09;;;;;;;4.35;1.75;;;;;;;;;;5052928;28;20035;-58
2022/05/15 10:11:36;;;;;;;4.72;1.80;;;;;;;;;;5052785;28;20037;-57
2022/05/15 10:14:02;;;;;;;3.53;1.80;;;;;;;;;;5052517;28;20160;-58
2022/05/15 10:16:30;;;;;;;12.82;3.25;;;;;;;;;;5052392;28;20033;-57
2022/05/15 10:19:12;;;;;;;5.40;1.50;;;;;;;;;;5052461;28;20033;-58
2022/05/15 10:21:45;;;;;;;3.45;1.27;;;;;;;;;;5051356;28;20086;-57
2022/05/15 10:24:14;;;;;;;5.80;1.65;;;;;;;;;;5052583;28;20032;-57
2022/05/15 10:27:02;;;;;;;2.33;1.30;;;;;;;;;;5052511;28;20122;-59
2022/05/15 10:29:38;;;;;;;3.40;1.58;;;;;;;;;;5052295;28;20472;-57
2022/05/15 10:32:08;;;;;;;4.00;1.67;;;;;;;;;;5052459;28;20029;-57
2022/05/15 10:34:34;;;;;;;4.38;1.88;;;;;;;;;;5051016;28;20116;-57
2022/05/15 10:37:18;;;;;;;4.88;1.58;;;;;;;;;;5052350;28;20025;-58
2022/05/15 10:39:45;;;;;;;4.05;1.45;;;;;;;;;;5052310;28;20043;-57
2022/05/15 10:42:25;;;;;;;6.18;2.72;;;;;;;;;;5052310;28;20032;-57
2022/05/15 10:44:57;;;;;;;5.63;1.90;;;;;;;;;;5052234;28;20104;-57
2022/05/15 10:47:28;;;;;;;3.40;1.83;;;;;;;;;;5052285;28;20029;-57
2022/05/15 10:49:54;;;;;;;5.70;1.40;;;;;;;;;;5051797;28;20052;-58
2022/05/15 10:52:29;;;;;;;4.05;1.38;;;;;;;;;;5052034;28;20049;-57
2022/05/15 10:57:59;;;;;;;13.23;3.80;;;;;;;;;;5052072;28;20068;-57
2022/05/15 11:00:40;;;;;;;10.27;3.22;;;;;;;;;;5051890;28;20063;-57
2022/05/15 11:03:21;;;;;;;87.72;20.63;;;;;;;;;;5052052;28;20451;-57
2022/05/15 11:06:06;;;;;;;37.58;8.57;;;;;;;;;;5052115;28;20037;-57
2022/05/15 11:08:39;;;;;;;3.75;1.55;;;;;;;;;;5052276;28;20385;-57
2022/05/15 11:11:11;;;;;;;3.45;1.67;;;;;;;;;;5051901;28;20025;-57
2022/05/15 11:13:54;;;;;;;5.82;2.00;;;;;;;;;;5052009;28;20381;-56
2022/05/15 11:16:26;;;;;;;4.32;1.67;;;;;;;;;;5051969;28;20116;-57
2022/05/15 11:19:11;;;;;;;2.95;1.52;;;;;;;;;;5051897;28;20032;-57
2022/05/15 11:21:57;;;;;;;5.70;1.60;;;;;;;;;;5051668;28;20029;-57
2022/05/15 11:24:30;;;;;;;3.20;1.40;;;;;;;;;;5051872;28;20042;-57
2022/05/15 11:27:01;;;;;;;3.63;1.83;;;;;;;;;;5052013;28;20036;-58
2022/05/15 11:29:27;;;;;;;3.90;1.70;;;;;;;;;;5051864;28;20033;-57
2022/05/15 11:31:58;;;;;;;6.00;1.77;;;;;;;;;;5051846;28;20056;-57
2022/05/15 11:34:44;;;;;;;5.70;1.83;;;;;;;;;;5051901;28;20113;-57
2022/05/15 11:37:40;;;;;;;4.18;1.63;;;;;;;;;;5009446;28;20627;-56
2022/05/15 11:40:39;;;;;;;4.28;1.70;;;;;;;;;;5009026;28;20045;-57
2022/05/15 11:43:23;;;;;;;3.63;1.27;;;;;;;;;;5025112;28;20042;-58
2022/05/15 11:45:50;;;;;;;2.90;1.52;;;31.70;86.80;;;;;;5008746;28;20077;-56
2022/05/15 11:48:50;;;;;;;2.85;1.50;;;31.80;90.60;;;;;;5009227;28;20045;-57
2022/05/15 11:51:16;;;;;;;2.85;1.10;;;;;;;;;;4989742;28;20503;-56
2022/05/15 11:53:54;;;;;;;4.55;1.55;;;;;;;;;;4986661;28;20034;-56
2022/05/15 11:56:36;;;;;;;2.63;1.38;;;30.90;93.30;;;;;;4988750;28;20525;-56
2022/05/15 11:59:06;;;;;;;5.78;1.30;;;;;;;;;;4980486;28;20034;-56
2022/05/15 12:01:32;;;;;;;3.92;1.40;;;;;;;;;;4961128;28;20047;-56
2022/05/15 12:03:59;;;;;;;3.53;1.50;;;31.90;97.50;;;;;;4993031;28;20064;-55
2022/05/15 12:06:47;;;;;;;4.57;1.85;;;32.50;89.60;;;;;;4993523;28;20027;-57
2022/05/15 12:09:20;;;;;;;5.85;1.95;;;32.40;73.90;;;;;;4993017;28;20142;-56
2022/05/15 12:11:48;;;;;;;3.45;1.75;;;32.40;74.00;;;;;;4993410;28;20124;-56
2022/05/15 12:14:25;;;;;;;68.82;61.67;;;32.60;73.40;;;;;;5012264;28;20533;-58
2022/05/15 12:16:53;;;;;;;451.10;404.15;;;32.40;74.20;;;;;;5032722;28;20500;-60
2022/05/15 12:19:38;;;;;;;83.07;51.60;;;32.40;73.20;;;;;;5032528;28;20040;-57
2022/05/15 12:22:12;;;;;;;15.20;6.10;;;32.30;73.90;;;;;;5015943;28;20029;-55
2022/05/15 12:24:40;;;;;;;8.73;5.78;;;;;;;;;;5032604;28;20414;-58
2022/05/15 12:27:18;;;;;;;80.18;71.93;;;31.70;95.00;;;;;;5018724;28;20041;-57
2022/05/15 12:30:08;;;;;;;7.28;1.92;;;31.40;90.80;;;;;;5034865;28;20444;-56
2022/05/15 12:32:45;;;;;;;557.55;509.70;;;31.70;91.40;;;;;;5033511;28;20045;-59
2022/05/15 12:35:20;;;;;;;5.40;1.38;;;32.20;89.30;;;;;;4999634;28;20042;-56
2022/05/15 12:37:52;;;;;;;3.10;1.40;;;31.80;87.50;;;;;;5033236;28;20029;-57
2022/05/15 12:40:24;;;;;;;5.13;1.67;;;;;;;;;;5034713;28;20484;-59
2022/05/15 12:42:50;;;;;;;2.63;1.30;;;;;;;;;;5053390;28;20028;-58
2022/05/15 12:45:20;;;;;;;6.00;1.60;;;;;;;;;;5053637;28;20032;-59
2022/05/15 12:48:08;;;;;;;2.78;1.40;;;32.30;94.40;;;;;;5034453;28;20025;-58
2022/05/15 12:51:08;;;;;;;3.83;1.30;;;32.50;73.70;;;;;;5034399;28;20467;-59
2022/05/15 12:53:42;;;;;;;5.32;1.27;;;32.30;81.70;;;;;;5052295;28;20033;-59
2022/05/15 12:56:29;;;;;;;4.82;1.38;;;;;;;;;;5053461;28;20089;-59
2022/05/15 12:59:07;;;;;;;4.45;1.50;;;;;;;;;;5051172;28;20025;-60
2022/05/15 13:01:34;;;;;;;4.22;1.60;;;;;;;;;;5054167;28;20033;-57
2022/05/15 13:04:02;;;;;;;2.00;1.30;;;32.40;95.80;;;;;;5054099;28;20543;-57
2022/05/15 13:06:40;;;;;;;5.07;1.55;;;32.60;77.40;;;;;;5050860;28;20025;-60
2022/05/15 13:09:18;;;;;;;4.38;1.75;;;32.60;78.00;;;;;;5053881;28;20029;-56
2022/05/15 13:11:46;;;;;;;3.13;1.50;;;;;;;;;;5049902;28;20765;-57
2022/05/15 13:14:23;;;;;;;4.78;1.88;;;;;;;;;;5048743;28;20127;-59
2022/05/15 13:16:51;;;;;;;2.78;1.27;;;;;;;;;;5031436;28;20045;-58
2022/05/15 13:19:19;;;;;;;2.70;1.30;;;;;;;;;;5028639;28;20036;-56
2022/05/15 13:21:49;;;;;;;3.65;1.30;;;;;;;;;;5031378;28;20037;-57
2022/05/15 13:24:16;;;;;;;5.03;1.80;;;;;;;;;;5031305;28;20471;-55
2022/05/15 13:26:44;;;;;;;3.80;1.50;;;;;;;;;;5043433;28;20477;-57
2022/05/15 13:29:15;;;;;;;1.65;1.10;;;;;;;;;;5024283;28;20041;-57
2022/05/15 13:31:42;;;;;;;4.95;1.33;;;;;;;;;;5031214;28;20042;-57
2022/05/15 13:34:13;;;;;;;3.80;1.23;;;;;;;;;;5038305;28;20024;-58
2022/05/15 13:36:59;;;;;;;3.70;1.80;;;;;;;;;;5044083;28;20123;-60
2022/05/15 13:45:18;;;;;;;2.38;1.25;;;33.00;93.30;;;;;;5053361;28;20070;-57
2022/05/15 13:48:08;;;;;;;4.15;1.50;;;33.00;91.90;;;;;;5053615;28;20021;-59
2022/05/15 13:50:41;;;;;;;4.80;1.88;;;33.00;91.60;;;;;;5053378;28;20094;-58